Time;durP1;ratioP1;P1;durP2;ratioP2;P2;SDS_P1;SDS_P2;PMS_P1;PMS_P2;Temp;Humidity;BMP_temperature;BMP_pressure;BME280_temperature;BME280_humidity;BME280_pressure;Samples;Min_cycle;Max_cycle;Signal;HPM_P1;HPM_P2
2022/09/17 00:01:33;;;;;;;4.40;1.10;;;;;;;9.07;100.00;98087.95;104974;1271;59737;-69
2022/09/17 00:04:21;;;;;;;5.40;1.30;;;;;;;9.12;100.00;98095.85;105076;1271;73924;-69
2022/09/17 00:07:09;;;;;;;5.30;1.30;;;;;;;9.17;100.00;98090.95;105105;1271;66839;-73
2022/09/17 00:09:57;;;;;;;6.10;1.40;;;;;;;9.22;100.00;98090.25;105155;1271;71280;-71
2022/09/17 00:12:46;;;;;;;5.70;1.40;;;;;;;9.27;100.00;98092.41;105049;1271;61133;-72
2022/09/17 00:15:46;;;;;;;5.50;1.50;;;;;;;9.32;100.00;98090.88;104948;1271;61188;-70
2022/09/17 00:18:35;;;;;;;5.20;1.50;;;;;;;9.36;100.00;98089.74;104987;1271;73245;-69
2022/09/17 00:21:24;;;;;;;6.50;1.40;;;;;;;9.39;100.00;98092.38;105090;1271;67416;-74
2022/09/17 00:24:14;;;;;;;8.10;1.30;;;;;;;9.41;100.00;98100.14;105132;1271;74242;-72
2022/09/17 00:27:03;;;;;;;5.00;1.10;;;;;;;9.42;100.00;98088.76;105167;1271;59704;-69
2022/09/17 00:29:50;;;;;;;8.10;1.40;;;;;;;9.42;100.00;98091.39;105094;1271;60526;-70
2022/09/17 00:32:38;;;;;;;7.30;1.30;;;;;;;9.41;100.00;98090.83;105147;1271;73817;-71
2022/09/17 00:35:27;;;;;;;5.10;1.10;;;;;;;9.40;100.00;98098.35;105061;1271;68628;-71
2022/09/17 00:38:15;;;;;;;6.50;1.30;;;;;;;9.38;100.00;98098.70;105065;1271;74400;-71
2022/09/17 00:41:04;;;;;;;6.20;1.10;;;;;;;9.35;100.00;98105.39;105168;1271;61036;-70
2022/09/17 00:43:59;;;;;;;4.70;1.10;;;;;;;9.33;100.00;98114.94;105227;1271;61001;-71
2022/09/17 00:46:48;;;;;;;5.70;1.20;;;;;;;9.33;100.00;98115.65;105063;1271;74618;-70
2022/09/17 00:49:36;;;;;;;5.40;1.30;;;;;;;9.34;100.00;98113.11;104894;1271;69557;-71
2022/09/17 00:52:33;;;;;;;5.90;1.30;;;;;;;9.35;100.00;98117.41;105080;1271;74595;-70
2022/09/17 00:55:31;;;;;;;6.00;1.60;;;;;;;9.36;100.00;98117.81;105101;1271;59855;-69
2022/09/17 00:58:21;;;;;;;4.90;1.10;;;;;;;9.38;100.00;98110.21;105073;1271;59555;-69
2022/09/17 01:01:09;;;;;;;5.40;1.40;;;;;;;9.40;100.00;98114.28;105084;1271;73871;-69
2022/09/17 01:03:57;;;;;;;5.90;1.30;;;;;;;9.41;100.00;98109.08;105049;1271;69559;-70
2022/09/17 01:07:27;;;;;;;6.70;1.10;;;;;;;9.43;100.00;98114.13;105072;1271;72903;-69
2022/09/17 01:11:11;;;;;;;5.30;1.30;;;;;;;9.46;100.00;98106.04;104183;1271;1668391;-71
2022/09/17 01:14:22;;;;;;;4.70;1.40;;;;;;;9.48;100.00;98103.68;105100;1271;60981;-70
2022/09/17 01:17:29;;;;;;;4.30;0.90;;;;;;;9.50;100.00;98108.97;105045;1271;73540;-70
2022/09/17 01:20:51;;;;;;;4.20;1.00;;;;;;;9.50;100.00;98108.20;105066;1271;68390;-69
2022/09/17 01:23:44;;;;;;;6.10;1.40;;;;;;;9.52;100.00;98103.64;105166;1271;74425;-69
2022/09/17 01:27:11;;;;;;;5.20;1.30;;;;;;;9.53;100.00;98101.22;105288;1271;59729;-69
2022/09/17 01:30:50;;;;;;;5.00;1.00;;;;;;;9.53;100.00;98099.06;105163;1271;59636;-69
2022/09/17 01:33:52;;;;;;;6.40;2.00;;;;;;;9.52;100.00;98099.16;105140;1271;74687;-70
2022/09/17 01:37:02;;;;;;;5.00;1.00;;;;;;;9.51;100.00;98098.45;105261;1271;67051;-71
2022/09/17 01:40:09;;;;;;;5.40;1.20;;;;;;;9.49;100.00;98109.79;104917;1271;73349;-71
2022/09/17 01:43:28;;;;;;;4.40;1.10;;;;;;;9.49;100.00;98112.09;105362;1271;59960;-70
2022/09/17 01:46:21;;;;;;;7.40;1.30;;;;;;;9.49;100.00;98107.11;105071;1271;59902;-70
2022/09/17 01:49:10;;;;;;;6.20;0.90;;;;;;;9.48;100.00;98100.66;104972;1271;74275;-69
2022/09/17 01:52:00;;;;;;;4.50;0.90;;;;;;;9.48;100.00;98100.13;105279;1271;69158;-69
2022/09/17 01:54:56;;;;;;;3.90;0.80;;;;;;;9.47;100.00;98094.39;104954;1271;74408;-68
2022/09/17 01:57:54;;;;;;;4.20;1.10;;;;;;;9.45;100.00;98095.52;104909;1272;60248;-70
2022/09/17 02:00:50;;;;;;;4.20;1.00;;;;;;;9.43;100.00;98105.16;105062;1271;61049;-69
2022/09/17 02:03:53;;;;;;;4.10;0.90;;;;;;;9.41;100.00;98104.59;104895;1271;74713;-69
2022/09/17 02:06:49;;;;;;;4.80;0.90;;;;;;;9.41;100.00;98117.37;105281;1271;66657;-69
2022/09/17 02:10:17;;;;;;;4.50;1.00;;;;;;;9.40;100.00;98120.32;105082;1271;73376;-69
2022/09/17 02:13:14;;;;;;;5.10;1.10;;;;;;;9.39;100.00;98118.42;104861;1274;59729;-69
2022/09/17 02:16:34;;;;;;;6.00;1.00;;;;;;;9.39;100.00;98117.20;105062;1271;61740;-72
2022/09/17 02:19:30;;;;;;;5.20;1.00;;;;;;;9.36;100.00;98115.13;105206;1271;73316;-68
2022/09/17 02:22:58;;;;;;;2.70;0.70;;;;;;;9.36;100.00;98122.26;105289;1271;69844;-69
2022/09/17 02:25:55;;;;;;;4.80;1.50;;;;;;;9.35;100.00;98113.89;104564;1278;74056;-69
2022/09/17 02:28:50;;;;;;;6.40;1.40;;;;;;;9.34;100.00;98117.86;104374;1278;61322;-70
2022/09/17 02:31:41;;;;;;;4.30;1.00;;;;;;;9.33;100.00;98118.16;104484;1277;61141;-69
2022/09/17 02:34:29;;;;;;;6.00;1.60;;;;;;;9.32;100.00;98118.62;104482;1277;73078;-69
2022/09/17 02:37:17;;;;;;;5.10;1.40;;;;;;;9.31;100.00;98117.12;105082;1277;68297;-71
2022/09/17 02:40:06;;;;;;;5.20;1.50;;;;;;;9.30;100.00;98114.79;104635;1278;72879;-71
2022/09/17 02:43:29;;;;;;;4.80;1.20;;;;;;;9.28;100.00;98117.25;104649;1277;59755;-72
2022/09/17 02:46:46;;;;;;;4.50;1.10;;;;;;;9.27;100.00;98116.13;104732;1277;60044;-70
2022/09/17 02:50:24;;;;;;;5.70;1.30;;;;;;;9.25;100.00;98110.88;104583;1277;73685;-70
2022/09/17 02:53:35;;;;;;;5.10;1.40;;;;;;;9.22;100.00;98110.47;104841;1277;67586;-71
2022/09/17 02:56:56;;;;;;;5.30;1.20;;;;;;;9.20;100.00;98103.53;104654;1277;74516;-70
2022/09/17 03:00:22;;;;;;;7.30;1.40;;;;;;;9.20;100.00;98115.80;104843;1277;59749;-70
2022/09/17 03:03:36;;;;;;;7.50;1.70;;;;;;;9.19;100.00;98116.53;104511;1278;61190;-71
2022/09/17 03:06:24;;;;;;;5.50;1.10;;;;;;;9.19;100.00;98117.66;104550;1278;73775;-73
2022/09/17 03:09:16;;;;;;;5.40;1.30;;;;;;;9.19;100.00;98127.02;104719;1277;67419;-72
2022/09/17 03:12:04;;;;;;;4.80;1.20;;;;;;;9.18;100.00;98125.46;104498;1280;72620;-72
2022/09/17 03:14:52;;;;;;;6.20;1.40;;;;;;;9.19;100.00;98130.88;104607;1281;59662;-72
2022/09/17 03:17:40;;;;;;;5.20;1.10;;;;;;;9.20;100.00;98119.63;104483;1281;62042;-73
2022/09/17 03:20:28;;;;;;;4.70;1.00;;;;;;;9.19;100.00;98122.21;104472;1281;72799;-76
2022/09/17 03:23:26;;;;;;;5.80;1.20;;;;;;;9.16;100.00;98126.43;104846;1281;67161;-72
2022/09/17 03:26:14;;;;;;;5.30;1.20;;;;;;;9.13;100.00;98123.17;104408;1281;72927;-73
2022/09/17 03:29:02;;;;;;;4.20;0.90;;;;;;;9.11;100.00;98126.11;104717;1281;61046;-70
2022/09/17 03:31:50;;;;;;;3.80;0.90;;;;;;;9.07;100.00;98126.88;104534;1280;61896;-72
2022/09/17 03:34:38;;;;;;;4.90;1.20;;;;;;;9.00;100.00;98122.92;104435;1281;73759;-71
2022/09/17 03:37:27;;;;;;;4.40;0.90;;;;;;;8.95;100.00;98124.72;104763;1271;68768;-69
2022/09/17 03:40:19;;;;;;;3.40;0.90;;;;;;;8.88;100.00;98121.86;105066;1271;74529;-73
2022/09/17 03:43:07;;;;;;;4.90;1.10;;;;;;;8.83;100.00;98123.20;105029;1271;59787;-75
2022/09/17 03:45:56;;;;;;;5.30;1.30;;;;;;;8.77;100.00;98122.05;105347;1271;60380;-72
2022/09/17 03:48:44;;;;;;;5.10;1.20;;;;;;;8.69;100.00;98113.48;105292;1271;74742;-73
2022/09/17 03:51:32;;;;;;;4.70;0.80;;;;;;;8.63;100.00;98123.61;105185;1271;68523;-72
2022/09/17 03:54:20;;;;;;;4.60;1.30;;;;;;;8.58;100.00;98121.92;105119;1271;73511;-69
2022/09/17 03:57:08;;;;;;;4.00;1.00;;;;;;;8.52;100.00;98119.41;105169;1271;59750;-71
2022/09/17 03:59:56;;;;;;;5.60;1.20;;;;;;;8.49;100.00;98124.30;105482;1271;60400;-74
2022/09/17 04:02:44;;;;;;;6.10;1.20;;;;;;;8.46;100.00;98121.42;105347;1271;74281;-72
2022/09/17 04:05:32;;;;;;;5.10;1.10;;;;;;;8.42;100.00;98124.27;105128;1271;68496;-72
2022/09/17 04:08:20;;;;;;;6.60;1.10;;;;;;;8.40;100.00;98123.09;105174;1271;74863;-68
2022/09/17 04:11:09;;;;;;;6.60;1.20;;;;;;;8.38;100.00;98116.02;105171;1271;60273;-70
2022/09/17 04:13:56;;;;;;;6.20;1.40;;;;;;;8.39;100.00;98119.70;105118;1271;62033;-68
2022/09/17 04:16:44;;;;;;;5.20;1.20;;;;;;;8.38;100.00;98112.31;105105;1271;75038;-72
2022/09/17 04:19:32;;;;;;;5.40;1.40;;;;;;;8.39;100.00;98112.39;105081;1271;69667;-69
2022/09/17 04:22:23;;;;;;;4.10;1.10;;;;;;;8.41;100.00;98116.84;105069;1271;72960;-72
2022/09/17 04:25:11;;;;;;;5.00;1.20;;;;;;;8.43;100.00;98123.68;105325;1271;59688;-71
2022/09/17 04:27:59;;;;;;;5.10;1.30;;;;;;;8.45;100.00;98122.21;105036;1271;59544;-71
2022/09/17 04:30:47;;;;;;;4.80;1.50;;;;;;;8.47;100.00;98118.65;105181;1271;74680;-69
2022/09/17 04:33:36;;;;;;;6.70;1.60;;;;;;;8.50;100.00;98116.29;105081;1271;68107;-73
2022/09/17 04:36:27;;;;;;;5.60;1.40;;;;;;;8.54;100.00;98113.42;105048;1271;73210;-71
2022/09/17 04:39:16;;;;;;;6.10;1.30;;;;;;;8.58;100.00;98117.14;105081;1271;60042;-70
2022/09/17 04:42:04;;;;;;;6.50;1.70;;;;;;;8.62;100.00;98116.02;105074;1271;60815;-71
2022/09/17 04:44:51;;;;;;;6.00;1.60;;;;;;;8.65;100.00;98120.59;105145;1271;74699;-71
2022/09/17 04:47:40;;;;;;;6.10;1.60;;;;;;;8.71;100.00;98127.58;105055;1271;68586;-74
2022/09/17 04:50:28;;;;;;;5.30;1.50;;;;;;;8.78;100.00;98136.61;105080;1271;74488;-70
2022/09/17 04:53:17;;;;;;;5.70;1.60;;;;;;;8.86;100.00;98137.77;105127;1271;59692;-70
2022/09/17 04:56:05;;;;;;;5.70;1.40;;;;;;;8.97;100.00;98143.21;105114;1271;59669;-71
2022/09/17 04:58:53;;;;;;;5.50;1.50;;;;;;;9.09;100.00;98149.26;105261;1271;74441;-70
2022/09/17 05:01:42;;;;;;;6.40;1.30;;;;;;;9.22;100.00;98154.30;105099;1271;69255;-72
2022/09/17 05:04:30;;;;;;;4.90;1.30;;;;;;;9.33;100.00;98158.17;104958;1271;72980;-70
2022/09/17 05:07:18;;;;;;;6.80;1.60;;;;;;;9.45;100.00;98152.16;105133;1271;59981;-70
2022/09/17 05:10:07;;;;;;;6.20;1.60;;;;;;;9.56;100.00;98147.13;105180;1271;61427;-71
2022/09/17 05:12:56;;;;;;;5.80;1.40;;;;;;;9.70;100.00;98149.77;105095;1271;71755;-72
2022/09/17 05:15:44;;;;;;;5.30;1.40;;;;;;;9.81;100.00;98147.33;105106;1271;66762;-72
2022/09/17 05:18:32;;;;;;;4.70;1.40;;;;;;;9.94;100.00;98148.33;105082;1271;71526;-72
2022/09/17 05:21:20;;;;;;;4.30;1.00;;;;;;;10.06;100.00;98145.10;105067;1271;61236;-74
2022/09/17 05:24:09;;;;;;;4.30;1.10;;;;;;;10.17;99.99;98151.92;105059;1271;60419;-73
2022/09/17 05:26:57;;;;;;;4.70;1.20;;;;;;;10.22;99.25;98149.95;105010;1271;73548;-74
2022/09/17 05:29:45;;;;;;;5.30;1.50;;;;;;;10.27;99.17;98147.60;104954;1272;68198;-73
2022/09/17 05:32:35;;;;;;;5.70;1.30;;;;;;;10.35;99.09;98142.55;105219;1271;74338;-73
2022/09/17 05:35:23;;;;;;;4.70;1.30;;;;;;;10.39;98.47;98143.05;105654;1271;59736;-74
2022/09/17 05:38:11;;;;;;;4.70;1.20;;;;;;;10.44;97.77;98141.63;105676;1271;61431;-73
2022/09/17 05:41:05;;;;;;;5.00;1.20;;;;;;;10.48;97.54;98140.00;105141;1274;73309;-75
2022/09/17 05:43:54;;;;;;;5.10;1.60;;;;;;;10.51;96.88;98141.80;105258;1271;69614;-75
2022/09/17 05:46:42;;;;;;;6.50;1.50;;;;;;;10.60;96.93;98158.48;105293;1271;71504;-72
2022/09/17 05:49:30;;;;;;;4.80;1.20;;;;;;;10.73;97.04;98159.09;105312;1271;59663;-74
2022/09/17 05:52:21;;;;;;;6.40;1.40;;;;;;;10.77;96.37;98161.54;105608;1271;60471;-75
2022/09/17 05:55:09;;;;;;;5.90;1.40;;;;;;;10.74;95.60;98165.95;105111;1271;74671;-74
2022/09/17 05:58:18;;;;;;;6.40;1.60;;;;;;;10.73;95.65;98165.98;105303;1271;68030;-75
2022/09/17 06:01:06;;;;;;;4.80;1.40;;;;;;;10.79;94.91;98173.69;105452;1271;73884;-74
2022/09/17 06:03:54;;;;;;;6.00;1.50;;;;;;;10.87;94.82;98180.36;105212;1271;60276;-74
2022/09/17 06:06:42;;;;;;;5.70;1.50;;;;;;;10.94;94.05;98184.55;105203;1271;60532;-72
2022/09/17 06:09:30;;;;;;;6.30;1.50;;;;;;;11.01;93.54;98186.70;105513;1271;74557;-72
2022/09/17 06:12:18;;;;;;;5.00;1.30;;;;;;;11.14;92.93;98189.42;104946;1271;65957;-73
2022/09/17 06:15:07;;;;;;;6.50;1.40;;;;;;;11.17;92.06;98194.38;104970;1271;71458;-72
2022/09/17 06:17:56;;;;;;;7.90;1.50;;;;;;;11.12;92.12;98192.65;105066;1271;59749;-74
2022/09/17 06:21:02;;;;;;;7.10;1.90;;;;;;;11.11;92.13;98196.69;105247;1271;59748;-73
2022/09/17 06:23:56;;;;;;;6.60;1.80;;;;;;;11.28;91.62;98196.16;104926;1271;74616;-73
2022/09/17 06:26:43;;;;;;;5.50;1.70;;;;;;;11.56;90.87;98201.81;105017;1271;67849;-73
2022/09/17 06:29:31;;;;;;;6.00;1.70;;;;;;;11.97;89.44;98200.11;104905;1274;72921;-74
2022/09/17 06:32:19;;;;;;;5.70;1.70;;;;;;;12.16;88.19;98203.34;105132;1271;61263;-73
2022/09/17 06:35:11;;;;;;;6.50;1.80;;;;;;;12.76;86.64;98202.81;105048;1271;61159;-72
2022/09/17 06:37:58;;;;;;;5.50;1.40;;;;;;;14.50;80.98;98200.13;105577;1271;72979;-73
2022/09/17 06:40:51;;;;;;;5.90;1.50;;;;;;;15.90;73.41;98190.02;105019;1271;68362;-74
2022/09/17 06:43:39;;;;;;;5.00;1.50;;;;;;;17.06;68.72;98190.45;105202;1271;73393;-74
2022/09/17 06:46:27;;;;;;;6.50;1.40;;;;;;;17.72;64.96;98190.05;105206;1271;59782;-74
2022/09/17 06:49:16;;;;;;;8.50;1.60;;;;;;;17.66;64.48;98192.13;105171;1271;61027;-71
2022/09/17 06:52:04;;;;;;;7.50;3.60;;;;;;;18.87;61.53;98188.35;105122;1271;73740;-73
2022/09/17 06:54:52;;;;;;;5.90;1.30;;;;;;;19.17;59.13;98188.79;105098;1271;67750;-73
2022/09/17 06:57:40;;;;;;;6.00;1.40;;;;;;;18.26;60.34;98194.13;105204;1269;73455;-71
2022/09/17 07:00:29;;;;;;;9.10;4.20;;;;;;;17.61;62.14;98199.87;105492;1271;59775;-71
2022/09/17 07:03:17;;;;;;;7.10;1.90;;;;;;;16.82;64.02;98200.56;105362;1271;60955;-71
2022/09/17 07:06:11;;;;;;;7.00;1.60;;;;;;;15.99;66.02;98202.43;105162;1271;74584;-73
2022/09/17 07:09:00;;;;;;;6.40;1.80;;;;;;;15.62;68.08;98202.02;105221;1271;68052;-74
2022/09/17 07:11:48;;;;;;;6.10;1.80;;;;;;;17.09;65.73;98200.97;105107;1271;74442;-72
2022/09/17 07:14:36;;;;;;;6.20;1.90;;;;;;;18.97;59.24;98198.54;105014;1271;59770;-73
2022/09/17 07:17:24;;;;;;;7.50;2.90;;;;;;;19.35;55.47;98199.16;105372;1271;61667;-70
2022/09/17 07:20:12;;;;;;;6.20;1.90;;;;;;;20.71;52.63;98194.94;105182;1271;73086;-72
2022/09/17 07:23:00;;;;;;;6.10;1.30;;;;;;;21.64;50.22;98197.84;105216;1271;67889;-72
2022/09/17 07:25:54;;;;;;;5.40;1.60;;;;;;;22.05;48.19;98205.31;105118;1271;74332;-71
2022/09/17 07:28:51;;;;;;;5.40;1.50;;;;;;;22.45;46.69;98207.09;105110;1271;59684;-71
2022/09/17 07:31:40;;;;;;;5.80;1.30;;;;;;;21.76;47.93;98212.11;105451;1271;60839;-71
2022/09/17 07:34:28;;;;;;;5.00;1.20;;;;;;;21.95;48.26;98214.92;105910;1271;73303;-71
2022/09/17 07:37:20;;;;;;;5.40;1.30;;;;;;;22.52;46.88;98215.96;105402;1271;67836;-72
2022/09/17 07:40:08;;;;;;;5.10;1.20;;;;;;;22.88;45.96;98215.82;105366;1271;72216;-73
2022/09/17 07:42:57;;;;;;;5.80;1.20;;;;;;;23.02;45.73;98216.88;105193;1271;59785;-72
2022/09/17 07:45:45;;;;;;;5.90;1.50;;;;;;;23.34;44.33;98220.27;105254;1271;60762;-73
2022/09/17 07:48:33;;;;;;;6.60;1.20;;;;;;;23.64;44.12;98220.35;105381;1271;74079;-75
2022/09/17 07:51:26;;;;;;;5.30;1.10;;;;;;;22.59;45.18;98230.02;105439;1270;69474;-73
2022/09/17 07:54:14;;;;;;;4.40;1.20;;;;;;;21.38;47.50;98226.94;105159;1271;72953;-75
2022/09/17 07:57:03;;;;;;;5.50;1.10;;;;;;;21.15;48.79;98231.05;105135;1271;59831;-75
2022/09/17 07:59:51;;;;;;;4.60;1.20;;;;;;;20.60;50.26;98231.38;105353;1271;60294;-73
2022/09/17 08:02:39;;;;;;;5.70;1.40;;;;;;;20.64;50.95;98233.66;105509;1271;70976;-74
2022/09/17 08:05:28;;;;;;;5.10;1.50;;;;;;;20.79;50.30;98232.70;105449;1270;66564;-72
2022/09/17 08:08:16;;;;;;;5.50;1.40;;;;;;;20.63;51.33;98235.20;105198;1271;73133;-71
2022/09/17 08:11:16;;;;;;;5.80;1.40;;;;;;;20.64;51.65;98231.41;105119;1271;59990;-74
2022/09/17 08:14:27;;;;;;;5.90;1.40;;;;;;;20.34;52.75;98238.91;105272;1271;59649;-72
2022/09/17 08:17:16;;;;;;;7.20;1.60;;;;;;;20.11;52.87;98240.34;105495;1271;73002;-72
2022/09/17 08:20:05;;;;;;;5.60;1.60;;;;;;;19.46;54.40;98246.51;105314;1271;67593;-74
2022/09/17 08:23:00;;;;;;;6.20;1.80;;;;;;;18.83;56.44;98248.11;105788;1271;72946;-75
2022/09/17 08:25:57;;;;;;;5.90;1.80;;;;;;;18.92;56.58;98250.73;105314;1271;59681;-73
2022/09/17 08:28:53;;;;;;;5.40;1.30;;;;;;;19.23;56.56;98253.05;105492;1271;59766;-73
2022/09/17 08:31:41;;;;;;;6.80;2.00;;;;;;;18.62;57.29;98266.55;105473;1271;73461;-75
2022/09/17 08:34:29;;;;;;;5.90;1.90;;;;;;;17.92;59.37;98269.20;105103;1271;68144;-73
2022/09/17 08:37:17;;;;;;;5.90;2.00;;;;;;;17.67;60.64;98270.51;105124;1271;73021;-74
2022/09/17 08:40:06;;;;;;;6.20;1.60;;;;;;;17.83;60.47;98269.66;104973;1271;60017;-74
2022/09/17 08:43:01;;;;;;;6.50;1.80;;;;;;;18.36;60.00;98271.73;105038;1271;60253;-72
2022/09/17 08:45:54;;;;;;;5.30;1.60;;;;;;;19.70;56.48;98269.80;104971;1271;74541;-73
2022/09/17 08:49:32;;;;;;;6.70;1.80;;;;;;;21.47;50.83;98263.50;105162;1271;68353;-72
2022/09/17 08:52:54;;;;;;;6.50;1.40;;;;;;;23.73;45.26;98260.48;105325;1271;74421;-75
2022/09/17 08:56:02;;;;;;;5.90;1.20;;;;;;;25.31;40.61;98258.67;105827;1271;59765;-74
2022/09/17 08:59:26;;;;;;;5.50;1.00;;;;;;;24.32;41.48;98259.63;105424;1271;59644;-74
2022/09/17 09:02:30;;;;;;;7.00;1.80;;;;;;;23.03;43.38;98262.55;105214;1271;74556;-74
2022/09/17 09:05:24;;;;;;;5.40;1.10;;;;;;;22.07;45.23;98265.76;105162;1271;69213;-72
2022/09/17 09:08:46;;;;;;;4.80;1.20;;;;;;;22.69;44.61;98268.59;105358;1271;73975;-74
2022/09/17 09:11:34;;;;;;;6.00;1.30;;;;;;;23.66;42.19;98262.14;105280;1271;59711;-71
2022/09/17 09:14:26;;;;;;;7.20;1.50;;;;;;;24.34;41.50;98260.61;105483;1271;60361;-73
2022/09/17 09:17:19;;;;;;;6.20;1.40;;;;;;;25.46;39.24;98250.73;105199;1271;74435;-73
2022/09/17 09:20:18;;;;;;;4.30;1.00;;;;;;;26.44;37.55;98253.44;105466;1271;67884;-71
2022/09/17 09:23:32;;;;;;;6.00;1.20;;;;;;;27.33;35.82;98249.10;105029;1270;71432;-78
2022/09/17 09:26:46;;;;;;;6.70;0.90;;;;;;;27.71;34.51;98248.59;105699;1271;59672;-77
2022/09/17 09:29:57;;;;;;;4.80;1.00;;;;;;;27.86;34.36;98246.32;105466;1271;60897;-79
2022/09/17 09:32:59;;;;;;;6.00;1.10;;;;;;;28.81;33.43;98250.51;105635;1271;72996;-80
2022/09/17 09:35:47;;;;;;;4.50;1.00;;;;;;;29.07;32.75;98244.91;105306;1271;68606;-74
2022/09/17 09:39:00;;;;;;;4.80;1.00;;;;;;;28.42;33.21;98245.77;105181;1271;74261;-77
2022/09/17 09:41:54;;;;;;;6.20;1.20;;;;;;;27.61;33.22;98245.58;105774;1271;59666;-77
2022/09/17 09:44:42;;;;;;;5.70;1.10;;;;;;;26.72;35.29;98248.89;105977;1271;59644;-80
2022/09/17 09:48:13;;;;;;;4.70;1.10;;;;;;;25.75;37.02;98249.98;105390;1271;71858;-78
2022/09/17 09:51:37;;;;;;;5.60;1.10;;;;;;;25.58;37.71;98248.22;105404;1271;66546;-76
2022/09/17 09:54:41;;;;;;;6.00;1.20;;;;;;;26.78;36.86;98244.04;105349;1271;73529;-82
2022/09/17 09:57:45;;;;;;;5.20;1.00;;;;;;;27.84;34.65;98235.89;105119;1271;59708;-79
2022/09/17 10:00:41;;;;;;;5.80;1.10;;;;;;;27.73;33.89;98233.00;105138;1271;59657;-77
2022/09/17 10:03:36;;;;;;;4.60;0.70;;;;;;;26.61;35.47;98236.65;105296;1271;71880;-84
2022/09/17 10:06:30;;;;;;;4.50;0.90;;;;;;;25.72;36.63;98229.69;105585;1271;66816;-74
2022/09/17 10:09:21;;;;;;;4.20;0.90;;;;;;;25.24;37.60;98239.02;105542;1271;72836;-76
2022/09/17 10:12:09;;;;;;;5.20;0.90;;;;;;;25.10;37.61;98238.35;105027;1271;59678;-75
2022/09/17 10:15:23;;;;;;;5.00;1.00;;;;;;;25.57;37.49;98242.34;105214;1271;59592;-76
2022/09/17 10:18:20;;;;;;;4.40;0.90;;;;;;;26.29;35.98;98243.99;104998;1271;74470;-76
2022/09/17 10:21:21;;;;;;;5.70;1.00;;;;;;;27.21;34.55;98238.38;105341;1271;66940;-79
2022/09/17 10:24:33;;;;;;;5.00;0.90;;;;;;;26.66;35.08;98238.02;105041;1271;74208;-79
2022/09/17 10:27:23;;;;;;;4.80;0.90;;;;;;;25.80;35.91;98234.73;105338;1271;59795;-76
2022/09/17 10:30:17;;;;;;;6.20;1.80;;;;;;;26.07;36.70;98232.21;105430;1271;62072;-75
2022/09/17 10:33:30;;;;;;;5.20;0.90;;;;;;;27.24;34.83;98230.58;105236;1271;71791;-77
2022/09/17 10:36:44;;;;;;;7.40;3.90;;;;;;;25.97;35.66;98242.67;105267;1271;69059;-76
2022/09/17 10:39:43;;;;;;;6.00;1.50;;;;;;;24.35;37.68;98249.22;105456;1271;72729;-79
2022/09/17 10:42:31;;;;;;;6.70;2.50;;;;;;;22.96;40.12;98266.64;104999;1271;59669;-71
2022/09/17 10:45:29;;;;;;;5.20;0.90;;;;;;;21.78;42.94;98276.38;105496;1270;59617;-79
2022/09/17 10:48:19;;;;;;;9.30;4.50;;;;;;;20.69;45.68;98274.83;105372;1269;73343;-75
2022/09/17 10:51:09;;;;;;;8.30;3.20;;;;;;;19.71;48.51;98293.14;105286;1271;68085;-79
2022/09/17 10:54:56;;;;;;;10.30;4.60;;;;;;;18.56;48.33;98304.04;105034;1271;72867;-78
2022/09/17 10:58:08;;;;;;;7.20;3.10;;;;;;;16.91;53.01;98326.23;104646;1277;59736;-75
2022/09/17 11:01:21;;;;;;;4.60;1.20;;;;;;;15.78;58.62;98327.46;104878;1278;59870;-80
2022/09/17 11:04:18;;;;;;;5.60;1.00;;;;;;;15.01;63.50;98331.54;104764;1277;71383;-78
2022/09/17 11:07:43;;;;;;;6.70;1.40;;;;;;;14.47;66.79;98336.51;104585;1277;68631;-79
2022/09/17 11:11:07;;;;;;;6.60;1.90;;;;;;;13.96;69.95;98338.28;104559;1277;71598;-77
2022/09/17 11:14:10;;;;;;;6.20;1.40;;;;;;;13.58;73.46;98340.13;104629;1277;59766;-79
2022/09/17 11:17:05;;;;;;;5.80;1.40;;;;;;;13.37;75.02;98334.18;104609;1277;60312;-78
2022/09/17 11:20:17;;;;;;;4.80;1.00;;;;;;;13.29;76.88;98333.40;104628;1278;73438;-78
2022/09/17 11:23:48;;;;;;;5.20;1.30;;;;;;;13.31;78.62;98332.34;104703;1277;66490;-78
2022/09/17 11:26:48;;;;;;;6.60;1.60;;;;;;;13.43;79.94;98336.50;104604;1277;73338;-79
2022/09/17 11:30:09;;;;;;;5.00;1.50;;;;;;;13.64;80.58;98338.83;104616;1277;59681;-79
2022/09/17 11:33:12;;;;;;;6.40;1.50;;;;;;;14.01;80.62;98333.00;104660;1278;60268;-77
2022/09/17 11:36:58;;;;;;;6.30;1.50;;;;;;;14.61;79.39;98328.16;105404;1271;73221;-79
2022/09/17 11:40:52;;;;;;;5.80;1.50;;;;;;;15.05;78.52;98312.27;105366;1271;68504;-78
2022/09/17 11:44:12;;;;;;;5.50;1.60;;;;;;;15.41;77.44;98307.57;105226;1271;71568;-76
2022/09/17 11:47:41;;;;;;;5.70;1.60;;;;;;;15.90;75.78;98306.63;105408;1270;59669;-78
2022/09/17 11:50:43;;;;;;;6.90;1.60;;;;;;;16.44;73.05;98303.80;104771;1277;61015;-78
2022/09/17 11:53:49;;;;;;;5.80;1.50;;;;;;;16.70;72.69;98299.21;104597;1277;73193;-78
2022/09/17 11:56:48;;;;;;;6.30;1.50;;;;;;;17.55;70.99;98295.86;104605;1277;68621;-76
2022/09/17 12:00:05;;;;;;;6.70;1.60;;;;;;;18.48;67.12;98295.13;104889;1277;72946;-78
2022/09/17 12:03:27;;;;;;;7.60;2.20;;;;;;;19.43;61.71;98292.46;104755;1277;59641;-72
2022/09/17 12:06:27;;;;;;;6.00;1.20;;;;;;;20.14;58.61;98297.30;104931;1277;61120;-72
2022/09/17 12:09:25;;;;;;;4.90;1.20;;;;;;;20.40;56.64;98295.47;104532;1277;73103;-79
2022/09/17 12:12:20;;;;;;;5.50;1.10;;;;;;;20.45;55.79;98296.08;104686;1277;68807;-77
2022/09/17 12:15:33;;;;;;;7.50;2.00;;;;;;;20.05;55.13;98303.34;104505;1279;73348;-73
2022/09/17 12:18:59;;;;;;;4.40;1.00;;;;;;;19.56;55.87;98305.73;104536;1278;59671;-74
2022/09/17 12:21:56;;;;;;;5.20;1.20;;;;;;;19.00;56.87;98305.87;104649;1277;60252;-76
2022/09/17 12:24:44;;;;;;;5.20;1.20;;;;;;;18.53;58.04;98313.13;104908;1277;73169;-74
2022/09/17 12:28:05;;;;;;;5.00;1.30;;;;;;;18.22;59.41;98318.15;105485;1271;66812;-75
2022/09/17 12:31:04;;;;;;;6.60;1.80;;;;;;;17.90;59.67;98313.83;105115;1271;73064;-72
2022/09/17 12:34:27;;;;;;;5.10;1.20;;;;;;;17.63;61.12;98313.64;105431;1271;59729;-77
2022/09/17 12:37:46;;;;;;;5.50;1.20;;;;;;;17.36;62.30;98306.84;105222;1271;62457;-80
2022/09/17 12:40:53;;;;;;;5.60;1.20;;;;;;;17.16;63.53;98306.24;105413;1271;73906;-75
2022/09/17 12:44:14;;;;;;;5.60;1.10;;;;;;;16.94;63.76;98301.86;105289;1271;67377;-78
2022/09/17 12:47:18;;;;;;;4.50;1.00;;;;;;;16.77;64.44;98300.97;105194;1271;72179;-76
2022/09/17 12:50:57;;;;;;;4.30;0.90;;;;;;;16.63;64.61;98300.02;105228;1271;59768;-76
2022/09/17 12:54:20;;;;;;;5.90;1.00;;;;;;;16.54;65.92;98296.47;104930;1276;60700;-74
2022/09/17 12:57:34;;;;;;;6.50;1.50;;;;;;;16.53;65.88;98290.19;104808;1277;74789;-75
2022/09/17 13:00:22;;;;;;;5.90;1.20;;;;;;;16.48;65.27;98290.09;104962;1277;69997;-75
2022/09/17 13:03:35;;;;;;;6.30;1.80;;;;;;;16.45;65.53;98292.60;104734;1277;73959;-75
2022/09/17 13:06:38;;;;;;;5.00;1.00;;;;;;;16.46;65.09;98295.28;104829;1278;59600;-76
2022/09/17 13:10:10;;;;;;;7.70;1.50;;;;;;;16.45;63.93;98300.23;103948;1277;1509543;-76
2022/09/17 13:13:29;;;;;;;5.30;0.90;;;;;;;16.52;63.82;98302.98;104705;1279;74713;-73
2022/09/17 13:16:41;;;;;;;5.30;1.20;;;;;;;16.48;63.03;98299.71;104648;1277;68208;-76
2022/09/17 13:19:38;;;;;;;5.50;1.10;;;;;;;16.47;63.04;98296.16;104825;1277;73902;-78
2022/09/17 13:22:32;;;;;;;6.10;1.40;;;;;;;16.47;63.04;98296.16;104887;1277;59575;-79
2022/09/17 13:25:26;;;;;;;6.00;1.20;;;;;;;16.41;63.41;98297.86;105000;1271;59561;-77
2022/09/17 13:28:14;;;;;;;5.40;1.10;;;;;;;16.41;64.03;98305.42;105268;1271;74801;-77
2022/09/17 13:31:03;;;;;;;5.00;1.30;;;;;;;16.49;64.59;98306.40;105316;1271;68515;-76
2022/09/17 13:34:00;;;;;;;5.80;1.30;;;;;;;16.55;63.35;98308.37;105456;1271;72869;-76
2022/09/17 13:36:51;;;;;;;4.90;1.10;;;;;;;16.61;64.25;98311.98;105653;1270;59739;-73
2022/09/17 13:39:51;;;;;;;5.80;1.00;;;;;;;16.57;63.21;98312.05;105512;1271;59345;-75
2022/09/17 13:42:49;;;;;;;7.30;1.20;;;;;;;16.53;62.39;98309.89;105206;1271;73254;-75
2022/09/17 13:45:59;;;;;;;6.00;1.10;;;;;;;16.67;62.27;98317.30;105280;1271;68105;-73
2022/09/17 13:48:56;;;;;;;5.40;1.10;;;;;;;16.72;61.78;98317.71;105210;1271;72848;-73